createdAt,value
2023-07-05T00:01:33.774Z,3.87
2023-07-05T00:04:02.123Z,3.84
2023-07-05T00:06:32.664Z,4.02
2023-07-05T00:09:00.918Z,3.90
2023-07-05T00:11:31.496Z,3.70
2023-07-05T00:13:59.754Z,3.59
2023-07-05T00:16:30.361Z,4.06
2023-07-05T00:18:58.663Z,3.85
2023-07-05T00:21:29.311Z,3.97
2023-07-05T00:23:57.620Z,4.02
2023-07-05T00:26:28.322Z,3.63
2023-07-05T00:28:56.593Z,3.50
2023-07-05T00:31:27.248Z,3.83
2023-07-05T00:33:55.523Z,3.80
2023-07-05T00:36:26.131Z,4.22
2023-07-05T00:38:54.414Z,3.61
2023-07-05T00:41:24.995Z,3.61
2023-07-05T00:43:53.333Z,3.30
2023-07-05T00:46:28.302Z,3.69
2023-07-05T00:49:15.368Z,3.97
2023-07-05T00:52:02.719Z,4.12
2023-07-05T00:54:44.653Z,3.56
2023-07-05T00:57:27.302Z,3.55
2023-07-05T01:00:04.866Z,3.77
2023-07-05T01:02:34.049Z,3.70
2023-07-05T01:05:02.713Z,3.83
2023-07-05T01:07:33.198Z,3.59
2023-07-05T01:10:01.603Z,3.50
2023-07-05T01:12:47.746Z,3.37
2023-07-05T01:15:29.450Z,3.57
2023-07-05T01:18:32.676Z,3.94
2023-07-05T01:21:21.146Z,3.41
2023-07-05T01:24:18.396Z,3.68
2023-07-05T01:27:28.261Z,3.53
2023-07-05T01:30:48.403Z,3.56
2023-07-05T01:33:34.443Z,3.60
2023-07-05T01:36:06.441Z,3.76
2023-07-05T01:38:34.724Z,3.63
2023-07-05T01:41:08.010Z,3.39
2023-07-05T01:43:43.672Z,3.47
2023-07-05T01:46:28.168Z,3.39
2023-07-05T01:49:36.754Z,3.31
2023-07-05T01:52:36.191Z,3.59
2023-07-05T01:55:20.753Z,3.38
2023-07-05T01:57:55.210Z,3.10
2023-07-05T02:00:29.410Z,3.59
2023-07-05T02:03:10.994Z,3.48
2023-07-05T02:05:40.758Z,3.68
2023-07-05T02:08:09.016Z,3.53
2023-07-05T02:10:39.994Z,3.14
2023-07-05T02:13:10.170Z,3.23
2023-07-05T02:15:39.739Z,3.09
2023-07-05T02:18:08.213Z,3.47
2023-07-05T02:20:37.836Z,3.18
2023-07-05T02:23:06.049Z,2.91
2023-07-05T02:25:37.171Z,2.61
2023-07-05T02:28:10.523Z,2.46
2023-07-05T02:30:40.696Z,2.85
2023-07-05T02:33:09.623Z,2.65
2023-07-05T02:35:40.706Z,2.96
2023-07-05T02:38:09.081Z,2.86
2023-07-05T02:40:38.816Z,3.00
2023-07-05T02:43:07.022Z,2.90
2023-07-05T02:45:36.612Z,2.94
2023-07-05T02:48:05.419Z,2.85
2023-07-05T02:50:39.598Z,3.01
2023-07-05T02:53:07.877Z,3.12
2023-07-05T02:55:37.437Z,2.69
2023-07-05T02:58:05.698Z,2.70
2023-07-05T03:00:36.336Z,2.74
2023-07-05T03:03:04.637Z,3.01
2023-07-05T03:05:34.286Z,2.78
2023-07-05T03:08:02.563Z,2.93
2023-07-05T03:10:39.012Z,2.65
2023-07-05T03:13:08.661Z,2.69
2023-07-05T03:15:37.525Z,2.89
2023-07-05T03:18:07.139Z,2.75
2023-07-05T03:20:35.360Z,2.53
2023-07-05T03:23:06.054Z,2.67
2023-07-05T03:25:34.307Z,2.87
2023-07-05T03:28:05.676Z,2.66
2023-07-05T03:30:36.061Z,2.99
2023-07-05T03:33:05.586Z,3.14
2023-07-05T03:35:33.881Z,3.07
2023-07-05T03:38:04.451Z,2.95
2023-07-05T03:40:32.678Z,2.77
2023-07-05T03:43:03.285Z,2.19
2023-07-05T03:45:35.730Z,2.39
2023-07-05T03:48:05.442Z,2.56
2023-07-05T03:50:35.503Z,2.72
2023-07-05T03:53:05.082Z,2.83
2023-07-05T03:55:36.732Z,2.76
2023-07-05T03:58:06.338Z,2.25
2023-07-05T04:00:34.613Z,2.38
2023-07-05T04:03:05.236Z,2.52
2023-07-05T04:05:33.857Z,2.91
2023-07-05T04:08:03.530Z,2.90
2023-07-05T04:10:31.856Z,2.82
2023-07-05T04:13:02.441Z,2.73
2023-07-05T04:15:30.806Z,2.46
2023-07-05T04:18:00.408Z,2.52
2023-07-05T04:20:28.738Z,2.55
2023-07-05T04:22:59.708Z,2.82
2023-07-05T04:25:28.021Z,3.20
2023-07-05T04:27:57.636Z,3.59
2023-07-05T04:30:25.959Z,3.39
2023-07-05T04:32:55.585Z,3.40
2023-07-05T04:35:23.841Z,3.82
2023-07-05T04:37:54.410Z,3.89
2023-07-05T04:40:23.279Z,3.83
2023-07-05T04:42:52.833Z,3.39
2023-07-05T04:45:21.102Z,3.65
2023-07-05T04:47:51.645Z,3.63
2023-07-05T04:50:19.876Z,3.05
2023-07-05T04:52:50.623Z,2.83
2023-07-05T04:55:19.233Z,3.04
2023-07-05T04:57:48.882Z,3.24
2023-07-05T05:00:17.497Z,3.28
2023-07-05T05:02:47.053Z,3.47
2023-07-05T05:05:15.368Z,3.66
2023-07-05T05:07:45.937Z,3.24
2023-07-05T05:10:14.159Z,3.26
2023-07-05T05:12:44.677Z,3.38
2023-07-05T05:15:12.911Z,3.68
2023-07-05T05:17:43.537Z,2.99
2023-07-05T05:20:12.625Z,2.92
2023-07-05T05:22:42.347Z,3.52
2023-07-05T05:25:10.601Z,3.58
2023-07-05T05:27:41.121Z,3.33
2023-07-05T05:30:09.870Z,3.39
2023-07-05T05:32:38.548Z,3.26
2023-07-05T05:35:07.360Z,3.37
2023-07-05T05:37:36.923Z,2.99
2023-07-05T05:40:06.935Z,3.25
2023-07-05T05:42:37.305Z,2.94
2023-07-05T05:45:06.733Z,3.05
2023-07-05T05:47:36.338Z,3.14
2023-07-05T05:50:05.121Z,3.38
2023-07-05T05:52:36.216Z,3.18
2023-07-05T05:55:04.973Z,3.31
2023-07-05T05:57:33.684Z,2.95
2023-07-05T06:00:01.950Z,3.14
2023-07-05T06:02:32.525Z,3.26
2023-07-05T06:05:00.808Z,2.85
2023-07-05T06:07:31.885Z,3.21
2023-07-05T06:10:00.192Z,3.08
2023-07-05T06:12:30.740Z,3.52
2023-07-05T06:14:58.989Z,2.89
2023-07-05T06:17:29.544Z,3.12
2023-07-05T06:19:57.854Z,2.95
2023-07-05T06:22:28.385Z,3.03
2023-07-05T06:24:56.657Z,2.89
2023-07-05T06:27:27.320Z,3.22
2023-07-05T06:29:55.576Z,2.88
2023-07-05T06:32:26.457Z,3.19
2023-07-05T06:34:54.801Z,3.06
2023-07-05T06:37:24.381Z,3.29
2023-07-05T06:39:52.725Z,3.37
2023-07-05T06:42:22.272Z,2.67
2023-07-05T06:44:50.535Z,3.21
2023-07-05T06:47:20.420Z,2.85
2023-07-05T06:49:48.715Z,2.79
2023-07-05T06:52:19.502Z,2.40
2023-07-05T06:54:47.821Z,2.84
2023-07-05T06:57:17.575Z,3.25
2023-07-05T06:59:45.815Z,3.10
2023-07-05T07:02:16.453Z,2.59
2023-07-05T07:04:44.980Z,2.71
2023-07-05T07:07:14.637Z,2.76
2023-07-05T07:09:42.953Z,2.84
2023-07-05T07:12:13.501Z,2.71
2023-07-05T07:14:41.773Z,2.94
2023-07-05T07:17:12.288Z,3.05
2023-07-05T07:19:40.530Z,2.54
2023-07-05T07:22:12.486Z,2.76
2023-07-05T07:24:40.730Z,2.70
2023-07-05T07:27:10.540Z,2.71
2023-07-05T07:29:38.820Z,2.46
2023-07-05T07:32:09.821Z,2.41
2023-07-05T07:34:38.304Z,2.27
2023-07-05T07:37:07.851Z,2.60
2023-07-05T07:39:36.153Z,2.18
2023-07-05T07:42:06.150Z,2.18
2023-07-05T07:44:34.372Z,2.10
2023-07-05T07:47:06.166Z,2.07
2023-07-05T07:49:34.695Z,1.87
2023-07-05T07:52:04.829Z,2.25
2023-07-05T07:54:33.063Z,2.30
2023-07-05T07:57:03.931Z,2.44
2023-07-05T07:59:32.315Z,1.91
2023-07-05T08:02:01.813Z,1.91
2023-07-05T08:04:30.157Z,2.33
2023-07-05T08:07:02.574Z,2.27
2023-07-05T08:09:30.806Z,2.05
2023-07-05T08:12:00.388Z,1.99
2023-07-05T08:14:28.652Z,2.26
2023-07-05T08:16:59.173Z,2.44
2023-07-05T08:19:27.419Z,2.47
2023-07-05T08:21:57.982Z,2.39
2023-07-05T08:24:27.458Z,2.36
2023-07-05T08:26:57.679Z,1.93
2023-07-05T08:29:26.104Z,2.04
2023-07-05T08:31:55.735Z,2.18
2023-07-05T08:34:24.433Z,2.34
2023-07-05T08:36:54.010Z,2.17
2023-07-05T08:39:22.284Z,2.50
2023-07-05T08:42:56.351Z,2.66
2023-07-05T08:45:45.101Z,2.37
2023-07-05T08:48:17.097Z,2.35
2023-07-05T08:51:13.299Z,2.22
2023-07-05T08:54:01.509Z,2.30
2023-07-05T08:56:45.700Z,2.50
2023-07-05T08:59:42.984Z,2.01
2023-07-05T09:02:17.713Z,2.40
2023-07-05T09:04:48.452Z,2.24
2023-07-05T09:08:06.531Z,3.09
2023-07-05T09:10:54.470Z,2.26
2023-07-05T09:13:39.163Z,2.33
2023-07-05T09:16:45.231Z,2.33
2023-07-05T09:19:42.265Z,2.50
2023-07-05T09:22:22.211Z,2.45
2023-07-05T09:24:53.612Z,2.19
2023-07-05T09:27:32.983Z,1.97
2023-07-05T09:30:10.143Z,2.05
2023-07-05T09:32:43.790Z,2.65
2023-07-05T09:35:22.207Z,1.80
2023-07-05T09:38:35.373Z,2.11
2023-07-05T09:41:20.851Z,2.46
2023-07-05T09:43:50.374Z,2.54
2023-07-05T09:46:30.667Z,2.63
2023-07-05T09:49:00.782Z,2.62
2023-07-05T09:51:32.017Z,2.34
2023-07-05T09:54:06.364Z,2.42
2023-07-05T09:56:56.211Z,3.22
2023-07-05T09:59:26.104Z,2.56
2023-07-05T10:02:16.176Z,2.44
2023-07-05T10:04:54.726Z,1.94
2023-07-05T10:07:28.799Z,2.22
2023-07-05T10:10:08.329Z,2.44
2023-07-05T10:12:42.883Z,2.80
2023-07-05T10:15:22.480Z,2.47
2023-07-05T10:17:55.249Z,2.42
2023-07-05T10:20:40.153Z,2.69
2023-07-05T10:23:20.565Z,2.76
2023-07-05T10:25:52.750Z,2.51
2023-07-05T10:28:23.944Z,2.86
2023-07-05T10:30:57.589Z,2.48
2023-07-05T10:33:30.943Z,2.54
2023-07-05T10:36:15.979Z,2.41
2023-07-05T10:38:49.329Z,2.69
2023-07-05T10:41:20.817Z,2.76
2023-07-05T10:44:19.683Z,3.00
2023-07-05T10:46:49.387Z,2.53
2023-07-05T10:49:20.510Z,3.57
2023-07-05T10:51:57.552Z,3.06
2023-07-05T10:54:41.775Z,2.55
2023-07-05T10:57:22.635Z,2.35
2023-07-05T11:00:02.524Z,2.85
2023-07-05T11:02:50.008Z,2.92
2023-07-05T11:05:56.444Z,2.86
2023-07-05T11:08:34.146Z,2.90
2023-07-05T11:11:20.594Z,2.77
2023-07-05T11:13:53.736Z,2.71
2023-07-05T11:16:28.465Z,2.84
2023-07-05T11:19:04.728Z,3.13
2023-07-05T11:21:51.608Z,2.55
2023-07-05T11:24:33.126Z,2.83
2023-07-05T11:27:24.270Z,2.82
2023-07-05T11:29:55.603Z,2.91
2023-07-05T11:32:49.055Z,3.14
2023-07-05T11:35:59.667Z,3.44
2023-07-05T11:38:38.408Z,3.15
2023-07-05T11:41:09.953Z,3.21
2023-07-05T11:43:44.711Z,2.64
2023-07-05T11:46:43.010Z,2.96
2023-07-05T11:49:37.453Z,3.06
2023-07-05T11:52:24.606Z,3.26
2023-07-05T11:55:15.443Z,3.12
2023-07-05T11:57:49.541Z,2.91
2023-07-05T12:00:30.442Z,3.08
2023-07-05T12:03:13.944Z,2.95
2023-07-05T12:05:45.506Z,3.21
2023-07-05T12:08:26.495Z,3.53
2023-07-05T12:10:59.985Z,3.29
2023-07-05T12:13:36.390Z,3.68
2023-07-05T12:16:13.983Z,3.49
2023-07-05T12:18:43.738Z,3.25
2023-07-05T12:21:14.103Z,4.07
2023-07-05T12:23:50.618Z,3.56
2023-07-05T12:26:27.176Z,3.16
2023-07-05T12:28:56.820Z,3.04
2023-07-05T12:31:25.249Z,4.14
2023-07-05T12:33:58.428Z,3.53
2023-07-05T12:36:27.232Z,3.54
2023-07-05T12:39:15.315Z,4.25
2023-07-05T12:42:00.708Z,4.03
2023-07-05T12:44:30.728Z,3.77
2023-07-05T12:47:28.618Z,4.36
2023-07-05T12:50:05.545Z,4.27
2023-07-05T12:52:35.221Z,4.44
2023-07-05T12:55:03.936Z,4.61
2023-07-05T12:57:33.763Z,4.84
2023-07-05T13:00:06.722Z,4.43
2023-07-05T13:02:37.278Z,4.85
2023-07-05T13:05:06.246Z,4.95
2023-07-05T13:07:40.457Z,4.50
2023-07-05T13:10:10.421Z,4.79
2023-07-05T13:12:58.129Z,4.75
2023-07-05T13:15:37.303Z,5.10
2023-07-05T13:18:22.046Z,5.05
2023-07-05T13:21:07.827Z,4.36
2023-07-05T13:23:47.747Z,4.89
2023-07-05T13:26:36.640Z,5.26
2023-07-05T13:29:30.840Z,5.19
2023-07-05T13:32:01.200Z,5.03
2023-07-05T13:34:29.565Z,5.08
2023-07-05T13:37:08.837Z,5.37
2023-07-05T13:39:38.499Z,4.98
2023-07-05T13:42:13.842Z,5.51
2023-07-05T13:44:43.484Z,5.30
2023-07-05T13:47:12.403Z,4.69
2023-07-05T13:49:42.546Z,5.12
2023-07-05T13:52:19.228Z,4.99
2023-07-05T13:54:49.552Z,5.25
2023-07-05T13:57:19.976Z,5.38
2023-07-05T13:59:49.596Z,4.94
2023-07-05T14:02:34.435Z,5.36
2023-07-05T14:05:04.992Z,5.19
2023-07-05T14:07:33.268Z,5.82
2023-07-05T14:10:02.872Z,5.23
2023-07-05T14:12:31.113Z,5.48
2023-07-05T14:15:01.663Z,4.99
2023-07-05T14:17:36.348Z,4.97
2023-07-05T14:20:07.172Z,5.44
2023-07-05T14:22:35.482Z,5.29
2023-07-05T14:25:16.677Z,5.07
2023-07-05T14:27:46.408Z,5.25
2023-07-05T14:30:14.924Z,4.63
2023-07-05T14:32:44.817Z,4.57
2023-07-05T14:35:21.347Z,4.68
2023-07-05T14:37:54.146Z,4.58
2023-07-05T14:40:28.041Z,4.37
2023-07-05T14:42:58.131Z,4.27
2023-07-05T14:45:32.568Z,4.06
2023-07-05T14:48:03.472Z,3.97
2023-07-05T14:50:33.533Z,4.36
2023-07-05T14:53:07.368Z,4.00
2023-07-05T14:55:35.601Z,4.54
2023-07-05T14:58:13.022Z,4.41
2023-07-05T15:00:43.497Z,4.37
2023-07-05T15:03:31.464Z,4.21
2023-07-05T15:06:04.518Z,4.36
2023-07-05T15:08:34.260Z,4.44
2023-07-05T15:11:03.921Z,4.40
2023-07-05T15:13:35.487Z,4.41
2023-07-05T15:16:05.559Z,4.29
2023-07-05T15:18:33.898Z,4.59
2023-07-05T15:21:04.474Z,4.54
2023-07-05T15:23:32.945Z,4.63
2023-07-05T15:26:03.465Z,4.67
2023-07-05T15:28:31.713Z,4.56
2023-07-05T15:31:02.291Z,4.53
2023-07-05T15:33:30.648Z,4.70
2023-07-05T15:36:00.296Z,4.57
2023-07-05T15:38:28.535Z,4.54
2023-07-05T15:41:05.202Z,4.46
2023-07-05T15:43:35.151Z,4.32
2023-07-05T15:46:09.084Z,4.20
2023-07-05T15:48:41.361Z,4.34
2023-07-05T15:51:10.899Z,4.74
2023-07-05T15:53:40.482Z,4.47
2023-07-05T15:56:08.727Z,4.00
2023-07-05T15:58:39.663Z,4.31
2023-07-05T16:01:11.659Z,4.08
2023-07-05T16:03:42.160Z,4.30
2023-07-05T16:06:10.490Z,4.24
2023-07-05T16:08:40.107Z,4.41
2023-07-05T16:11:10.339Z,4.90
2023-07-05T16:13:39.905Z,4.78
2023-07-05T16:16:08.310Z,4.43
2023-07-05T16:18:38.203Z,4.28
2023-07-05T16:21:06.611Z,4.16
2023-07-05T16:23:36.235Z,4.18
2023-07-05T16:26:04.560Z,3.31
2023-07-05T16:28:35.089Z,2.96
2023-07-05T16:31:04.688Z,2.71
2023-07-05T16:33:34.619Z,2.91
2023-07-05T16:36:03.310Z,2.74
2023-07-05T16:38:32.981Z,2.70
2023-07-05T16:41:01.806Z,2.68
2023-07-05T16:43:31.835Z,2.42
2023-07-05T16:46:01.889Z,2.27
2023-07-05T16:48:33.637Z,2.13
2023-07-05T16:51:03.602Z,2.06
2023-07-05T16:53:33.178Z,2.07
2023-07-05T16:56:01.656Z,1.83
2023-07-05T16:58:31.199Z,1.69
2023-07-05T17:01:01.442Z,1.65
2023-07-05T17:03:34.076Z,1.79
2023-07-05T17:06:04.378Z,1.81
2023-07-05T17:08:34.046Z,2.00
2023-07-05T17:11:05.582Z,2.23
2023-07-05T17:13:35.670Z,1.98
2023-07-05T17:16:05.288Z,2.02
2023-07-05T17:18:35.878Z,2.04
2023-07-05T17:21:08.449Z,2.23
2023-07-05T17:23:38.093Z,2.07
2023-07-05T17:26:13.278Z,2.04
2023-07-05T17:28:46.246Z,2.16
2023-07-05T17:31:21.153Z,2.19
2023-07-05T17:33:53.338Z,2.19
2023-07-05T17:36:24.520Z,2.11
2023-07-05T17:38:55.051Z,2.10
2023-07-05T17:41:24.429Z,1.53
2023-07-05T17:43:54.351Z,1.61
2023-07-05T17:46:34.537Z,1.54
2023-07-05T17:49:05.074Z,1.35
2023-07-05T17:51:34.585Z,1.52
2023-07-05T17:54:04.986Z,1.77
2023-07-05T17:56:33.268Z,1.72
2023-07-05T17:59:03.909Z,1.51
2023-07-05T18:01:32.366Z,1.51
2023-07-05T18:04:01.979Z,1.60
2023-07-05T18:06:30.192Z,1.53
2023-07-05T18:09:00.953Z,1.34
2023-07-05T18:11:29.267Z,1.48
2023-07-05T18:13:59.913Z,1.54
2023-07-05T18:16:28.203Z,1.69
2023-07-05T18:18:57.753Z,1.61
2023-07-05T18:21:26.522Z,1.96
2023-07-05T18:23:56.352Z,1.74
2023-07-05T18:26:24.609Z,1.41
2023-07-05T18:28:55.145Z,1.73
2023-07-05T18:31:23.448Z,1.46
2023-07-05T18:33:53.044Z,1.64
2023-07-05T18:36:21.792Z,1.98
2023-07-05T18:38:53.409Z,2.12
2023-07-05T18:41:23.001Z,2.31
2023-07-05T18:43:52.724Z,2.09
2023-07-05T18:46:21.153Z,2.27
2023-07-05T18:48:50.912Z,2.37
2023-07-05T18:51:19.353Z,2.34
2023-07-05T18:53:49.105Z,2.28
2023-07-05T18:56:19.078Z,2.47
2023-07-05T18:58:47.866Z,2.18
2023-07-05T19:01:20.135Z,2.09
2023-07-05T19:03:51.761Z,1.98
2023-07-05T19:06:23.890Z,2.26
2023-07-05T19:08:54.339Z,1.94
2023-07-05T19:11:29.077Z,2.39
2023-07-05T19:13:58.776Z,2.07
2023-07-05T19:16:27.430Z,1.70
2023-07-05T19:18:57.157Z,2.14
2023-07-05T19:21:25.418Z,1.73
2023-07-05T19:23:56.022Z,2.30
2023-07-05T19:26:24.588Z,2.13
2023-07-05T19:28:54.079Z,1.83
2023-07-05T19:31:26.810Z,1.56
2023-07-05T19:33:56.873Z,1.88
2023-07-05T19:36:27.456Z,1.81
2023-07-05T19:38:57.138Z,1.79
2023-07-05T19:41:25.416Z,1.66
2023-07-05T19:43:55.008Z,1.85
2023-07-05T19:46:25.145Z,1.52
2023-07-05T19:49:02.204Z,1.56
2023-07-05T19:51:31.986Z,1.83
2023-07-05T19:54:00.299Z,1.45
2023-07-05T19:56:31.967Z,1.63
2023-07-05T19:59:00.990Z,1.76
2023-07-05T20:01:30.679Z,1.85
2023-07-05T20:03:59.432Z,1.66
2023-07-05T20:06:29.180Z,1.74
2023-07-05T20:08:58.889Z,1.97
2023-07-05T20:11:28.531Z,1.81
2023-07-05T20:13:58.421Z,1.51
2023-07-05T20:16:28.051Z,1.52
2023-07-05T20:18:56.729Z,1.69
2023-07-05T20:21:26.262Z,1.69
2023-07-05T20:23:54.507Z,1.62
2023-07-05T20:26:25.052Z,1.83
2023-07-05T20:28:53.301Z,1.77
2023-07-05T20:31:22.941Z,1.88
2023-07-05T20:33:51.289Z,2.04
2023-07-05T20:36:22.882Z,1.86
2023-07-05T20:38:51.229Z,2.38
2023-07-05T20:41:22.206Z,2.18
2023-07-05T20:43:50.637Z,2.19
2023-07-05T20:46:19.407Z,2.09
2023-07-05T20:48:47.659Z,2.26
2023-07-05T20:51:18.779Z,2.38
2023-07-05T20:53:48.218Z,1.99
2023-07-05T20:56:17.983Z,2.66
2023-07-05T20:58:47.049Z,1.97
2023-07-05T21:01:16.904Z,1.90
2023-07-05T21:03:45.254Z,2.04
2023-07-05T21:06:15.173Z,1.83
2023-07-05T21:08:46.510Z,1.80
2023-07-05T21:11:16.731Z,1.86
2023-07-05T21:13:45.076Z,1.85
2023-07-05T21:16:14.812Z,1.92
2023-07-05T21:18:43.086Z,1.75
2023-07-05T21:21:14.746Z,1.76
2023-07-05T21:23:44.112Z,2.04
2023-07-05T21:26:14.188Z,1.85
2023-07-05T21:28:42.491Z,1.80
2023-07-05T21:31:13.532Z,1.79
2023-07-05T21:33:41.815Z,1.90
2023-07-05T21:36:12.412Z,1.80
2023-07-05T21:38:40.684Z,1.74
2023-07-05T21:41:10.429Z,1.83
2023-07-05T21:43:38.720Z,1.93
2023-07-05T21:46:09.349Z,1.68
2023-07-05T21:48:37.919Z,1.97
2023-07-05T21:51:10.413Z,1.89
2023-07-05T21:53:39.330Z,1.48
2023-07-05T21:56:09.003Z,1.86
2023-07-05T21:58:37.370Z,1.77
2023-07-05T22:01:09.794Z,1.87
2023-07-05T22:03:38.361Z,1.67
2023-07-05T22:06:08.116Z,1.95
2023-07-05T22:08:36.491Z,1.80
2023-07-05T22:11:06.064Z,1.70
2023-07-05T22:13:34.465Z,1.75
2023-07-05T22:16:04.438Z,1.88
2023-07-05T22:18:32.655Z,1.85
2023-07-05T22:21:03.304Z,2.00
2023-07-05T22:23:31.637Z,1.93
2023-07-05T22:26:02.251Z,2.09
2023-07-05T22:28:30.490Z,2.16
2023-07-05T22:31:01.058Z,2.38
2023-07-05T22:33:29.438Z,2.52
2023-07-05T22:36:03.322Z,2.23
2023-07-05T22:38:32.257Z,1.93
2023-07-05T22:41:02.022Z,1.88
2023-07-05T22:43:32.248Z,1.86
2023-07-05T22:46:03.886Z,1.52
2023-07-05T22:48:36.213Z,1.40
2023-07-05T22:51:06.645Z,1.22
2023-07-05T22:53:34.928Z,1.32
2023-07-05T22:56:04.784Z,1.44
2023-07-05T22:58:33.377Z,1.39
2023-07-05T23:01:06.416Z,1.31
2023-07-05T23:03:36.933Z,1.08
2023-07-05T23:06:10.419Z,1.16
2023-07-05T23:08:39.870Z,1.08
2023-07-05T23:11:13.044Z,1.01
2023-07-05T23:13:44.916Z,1.27
2023-07-05T23:16:17.034Z,1.22
2023-07-05T23:18:47.051Z,1.21
2023-07-05T23:21:18.405Z,1.16
2023-07-05T23:23:46.729Z,1.05
2023-07-05T23:26:16.995Z,0.95
2023-07-05T23:28:48.421Z,0.89
2023-07-05T23:31:29.701Z,0.80
2023-07-05T23:33:59.960Z,0.80
2023-07-05T23:36:28.273Z,0.98
2023-07-05T23:38:59.339Z,0.84
2023-07-05T23:41:27.987Z,1.06
2023-07-05T23:43:58.455Z,0.94
2023-07-05T23:46:27.123Z,1.20
2023-07-05T23:49:05.655Z,1.17
2023-07-05T23:51:35.370Z,1.14
2023-07-05T23:54:03.926Z,1.16
2023-07-05T23:56:33.645Z,1.05
2023-07-05T23:59:02.170Z,1.20
